createdAt,value
2017-11-13T00:00:01.441Z,36.20
2017-11-13T00:02:28.917Z,39.33
2017-11-13T00:04:57.281Z,38.70
2017-11-13T00:07:24.765Z,36.00
2017-11-13T00:09:52.256Z,38.00
2017-11-13T00:12:19.774Z,37.50
2017-11-13T00:14:48.013Z,31.43
2017-11-13T00:17:15.513Z,29.33
2017-11-13T00:19:43.045Z,33.20
2017-11-13T00:22:10.523Z,33.07
2017-11-13T00:24:38.762Z,31.30
2017-11-13T00:27:06.238Z,32.60
2017-11-13T00:29:33.730Z,31.03
2017-11-13T00:32:01.256Z,29.67
2017-11-13T00:34:28.818Z,30.77
2017-11-13T00:36:56.380Z,27.67
2017-11-13T00:39:23.870Z,36.27
2017-11-13T00:41:51.353Z,27.37
2017-11-13T00:44:18.846Z,29.03
2017-11-13T00:46:46.413Z,30.50
2017-11-13T00:49:13.894Z,30.60
2017-11-13T00:51:42.161Z,42.40
2017-11-13T00:54:10.401Z,32.17
2017-11-13T00:56:37.910Z,35.70
2017-11-13T00:59:06.152Z,31.53
2017-11-13T01:01:33.616Z,34.93
2017-11-13T01:04:01.182Z,33.70
2017-11-13T01:06:29.560Z,33.67
2017-11-13T01:08:57.131Z,29.80
2017-11-13T01:11:25.506Z,33.97
2017-11-13T01:13:53.753Z,32.73
2017-11-13T01:16:21.318Z,31.03
2017-11-13T01:18:48.805Z,29.23
2017-11-13T01:21:17.045Z,31.83
2017-11-13T01:23:44.528Z,35.10
2017-11-13T01:26:12.007Z,32.57
2017-11-13T01:28:40.247Z,36.57
2017-11-13T01:31:07.865Z,31.43
2017-11-13T01:33:35.381Z,44.10
2017-11-13T01:36:02.845Z,34.13
2017-11-13T01:38:30.350Z,32.80
2017-11-13T01:40:57.870Z,33.77
2017-11-13T01:43:26.134Z,37.20
2017-11-13T01:45:53.605Z,37.10
2017-11-13T01:48:21.855Z,34.00
2017-11-13T01:50:49.370Z,37.17
2017-11-13T01:53:16.890Z,31.70
2017-11-13T01:55:44.369Z,32.10
2017-11-13T01:58:12.613Z,28.77
2017-11-13T02:00:40.183Z,32.70
2017-11-13T02:03:07.658Z,32.07
2017-11-13T02:05:35.894Z,32.83
2017-11-13T02:08:03.364Z,33.23
2017-11-13T02:10:30.867Z,31.57
2017-11-13T02:12:58.341Z,33.33
2017-11-13T02:15:25.822Z,32.07
2017-11-13T02:17:53.293Z,30.30
2017-11-13T02:20:20.777Z,31.53
2017-11-13T02:22:49.020Z,32.93
2017-11-13T02:25:16.515Z,31.03
2017-11-13T02:27:44.773Z,30.40
2017-11-13T02:30:12.258Z,31.03
2017-11-13T02:32:40.505Z,29.43
2017-11-13T02:35:08.077Z,26.53
2017-11-13T02:37:35.565Z,27.13
2017-11-13T02:40:03.051Z,26.97
2017-11-13T02:42:30.526Z,32.23
2017-11-13T02:44:58.011Z,28.87
2017-11-13T02:47:25.488Z,23.13
2017-11-13T02:49:53.738Z,23.30
2017-11-13T02:52:21.209Z,21.77
2017-11-13T02:54:49.462Z,23.60
2017-11-13T02:57:16.930Z,25.43
2017-11-13T02:59:44.409Z,24.90
2017-11-13T03:02:12.659Z,27.93
2017-11-13T03:04:40.238Z,23.63
2017-11-13T03:07:07.797Z,24.90
2017-11-13T03:09:35.288Z,19.23
2017-11-13T03:12:02.744Z,23.10
2017-11-13T03:14:30.261Z,21.50
2017-11-13T03:16:57.723Z,23.20
2017-11-13T03:19:25.209Z,19.00
2017-11-13T03:21:53.446Z,17.90
2017-11-13T03:24:21.015Z,18.70
2017-11-13T03:26:48.505Z,16.27
2017-11-13T03:29:16.046Z,15.97
2017-11-13T03:31:44.307Z,15.10
2017-11-13T03:34:11.790Z,15.43
2017-11-13T03:36:40.061Z,15.23
2017-11-13T03:39:08.325Z,17.53
2017-11-13T03:41:35.822Z,21.17
2017-11-13T03:44:03.291Z,16.47
2017-11-13T03:46:30.783Z,18.07
2017-11-13T03:48:58.265Z,18.60
2017-11-13T03:51:25.825Z,16.70
2017-11-13T03:53:53.288Z,19.93
2017-11-13T03:56:21.527Z,20.83
2017-11-13T03:58:49.021Z,23.53
2017-11-13T04:01:17.272Z,22.33
2017-11-13T04:03:44.839Z,18.07
2017-11-13T04:06:13.821Z,21.57
2017-11-13T04:08:41.289Z,18.10
2017-11-13T04:11:08.756Z,16.00
2017-11-13T04:13:36.223Z,14.30
2017-11-13T04:16:04.465Z,22.03
2017-11-13T04:18:31.928Z,15.00
2017-11-13T04:20:59.414Z,17.13
2017-11-13T04:23:26.894Z,17.57
2017-11-13T04:25:54.414Z,17.40
2017-11-13T04:28:21.971Z,14.73
2017-11-13T04:30:49.461Z,14.17
2017-11-13T04:33:17.693Z,17.60
2017-11-13T04:35:45.223Z,14.47
2017-11-13T04:38:12.690Z,14.77
2017-11-13T04:40:40.200Z,16.17
2017-11-13T04:43:07.747Z,18.70
2017-11-13T04:45:35.216Z,17.10
2017-11-13T04:48:03.457Z,16.77
2017-11-13T04:50:31.031Z,18.93
2017-11-13T04:52:58.523Z,17.03
2017-11-13T04:55:26.772Z,18.23
2017-11-13T04:57:54.344Z,16.53
2017-11-13T05:00:21.800Z,20.20
2017-11-13T05:02:49.272Z,18.63
2017-11-13T05:05:17.518Z,15.93
2017-11-13T05:07:45.084Z,17.70
2017-11-13T05:10:12.557Z,19.00
2017-11-13T05:12:40.023Z,19.70
2017-11-13T05:15:08.257Z,22.10
2017-11-13T05:17:35.727Z,20.77
2017-11-13T05:20:03.193Z,22.53
2017-11-13T05:22:30.675Z,19.87
2017-11-13T05:24:58.937Z,21.57
2017-11-13T05:27:26.492Z,23.80
2017-11-13T05:29:55.467Z,26.37
2017-11-13T05:32:22.953Z,18.60
2017-11-13T05:34:50.408Z,17.97
2017-11-13T05:37:17.876Z,17.73
2017-11-13T05:39:46.116Z,24.20
2017-11-13T05:42:13.590Z,25.93
2017-11-13T05:44:41.051Z,27.10
2017-11-13T05:47:08.560Z,25.23
2017-11-13T05:49:36.085Z,19.83
2017-11-13T05:52:04.352Z,24.03
2017-11-13T05:54:31.907Z,20.77
2017-11-13T05:56:59.371Z,30.77
2017-11-13T05:59:26.881Z,22.10
2017-11-13T06:01:54.342Z,21.23
2017-11-13T06:04:21.823Z,21.47
2017-11-13T06:06:49.296Z,21.73
2017-11-13T06:09:16.885Z,22.03
2017-11-13T06:11:45.131Z,20.90
2017-11-13T06:14:12.617Z,23.77
2017-11-13T06:16:40.863Z,26.07
2017-11-13T06:19:08.349Z,21.03
2017-11-13T06:21:36.622Z,22.53
2017-11-13T06:24:04.865Z,21.33
2017-11-13T06:26:32.332Z,22.93
2017-11-13T06:28:59.818Z,26.80
2017-11-13T06:31:28.060Z,26.30
2017-11-13T06:33:55.541Z,24.77
2017-11-13T06:36:23.092Z,24.23
2017-11-13T06:38:50.760Z,26.97
2017-11-13T06:41:18.308Z,24.90
2017-11-13T06:43:45.796Z,28.13
2017-11-13T06:46:14.020Z,23.70
2017-11-13T06:48:41.492Z,21.87
2017-11-13T06:51:08.960Z,21.03
2017-11-13T06:53:36.447Z,20.50
2017-11-13T06:56:04.704Z,22.10
2017-11-13T06:58:32.286Z,23.90
2017-11-13T07:01:00.548Z,23.60
2017-11-13T07:03:28.020Z,20.77
2017-11-13T07:05:56.264Z,25.50
2017-11-13T07:08:23.732Z,25.23
2017-11-13T07:10:51.226Z,19.67
2017-11-13T07:13:19.461Z,23.23
2017-11-13T07:15:46.942Z,23.20
2017-11-13T07:18:15.199Z,20.40
2017-11-13T07:20:42.682Z,19.37
2017-11-13T07:23:10.907Z,22.37
2017-11-13T07:25:38.393Z,17.30
2017-11-13T07:28:05.960Z,20.07
2017-11-13T07:30:33.449Z,26.47
2017-11-13T07:33:00.925Z,25.63
2017-11-13T07:35:28.408Z,26.93
2017-11-13T07:37:55.872Z,40.07
2017-11-13T07:40:23.347Z,27.77
2017-11-13T07:42:50.939Z,30.97
2017-11-13T07:45:19.279Z,29.90
2017-11-13T07:47:46.755Z,31.73
2017-11-13T07:50:14.218Z,22.80
2017-11-13T07:52:42.473Z,30.53
2017-11-13T07:55:09.947Z,27.53
2017-11-13T07:57:37.496Z,24.13
2017-11-13T08:00:04.967Z,26.80
2017-11-13T08:02:32.441Z,26.20
2017-11-13T08:05:00.696Z,26.40
2017-11-13T08:07:28.196Z,27.17
2017-11-13T08:09:55.676Z,29.57
2017-11-13T08:12:23.533Z,26.70
2017-11-13T08:14:51.008Z,30.43
2017-11-13T08:17:18.480Z,32.20
2017-11-13T08:19:46.046Z,34.67
2017-11-13T08:22:13.781Z,31.17
2017-11-13T08:24:41.256Z,27.30
2017-11-13T08:27:09.079Z,30.50
2017-11-13T08:29:36.601Z,27.40
2017-11-13T08:32:04.074Z,29.30
2017-11-13T08:34:32.307Z,32.90
2017-11-13T08:36:59.779Z,35.27
2017-11-13T08:39:27.254Z,30.47
2017-11-13T08:41:54.730Z,28.77
2017-11-13T08:44:22.968Z,29.37
2017-11-13T08:46:50.445Z,29.93
2017-11-13T08:49:18.004Z,34.23
2017-11-13T08:51:45.484Z,31.57
2017-11-13T08:54:13.747Z,30.83
2017-11-13T08:56:41.993Z,32.03
2017-11-13T08:59:09.460Z,35.23
2017-11-13T09:01:36.937Z,32.60
2017-11-13T09:04:04.482Z,30.67
2017-11-13T09:06:31.963Z,29.50
2017-11-13T09:09:00.218Z,28.40
2017-11-13T09:11:27.690Z,27.90
2017-11-13T09:13:55.151Z,28.00
2017-11-13T09:16:23.395Z,24.70
2017-11-13T09:18:50.862Z,28.47
2017-11-13T09:21:18.342Z,29.87
2017-11-13T09:23:45.804Z,31.63
2017-11-13T09:26:14.060Z,25.00
2017-11-13T09:28:41.532Z,28.57
2017-11-13T09:31:09.009Z,36.73
2017-11-13T09:33:37.248Z,27.60
2017-11-13T09:36:04.713Z,29.50
2017-11-13T09:38:32.218Z,27.70
2017-11-13T09:40:59.727Z,33.23
2017-11-13T09:43:27.295Z,26.93
2017-11-13T09:45:54.769Z,27.30
2017-11-13T09:48:22.276Z,26.97
2017-11-13T09:50:49.789Z,32.83
2017-11-13T09:53:17.256Z,35.43
2017-11-13T09:55:44.729Z,29.17
2017-11-13T09:58:12.228Z,30.57
2017-11-13T10:00:39.688Z,33.13
2017-11-13T10:03:07.255Z,31.33
2017-11-13T10:05:34.708Z,36.23
2017-11-13T10:08:02.186Z,28.57
2017-11-13T10:10:29.657Z,28.53
2017-11-13T10:12:57.891Z,33.03
2017-11-13T10:15:25.366Z,29.20
2017-11-13T10:17:52.854Z,23.13
2017-11-13T10:20:20.302Z,31.17
2017-11-13T10:22:47.788Z,22.67
2017-11-13T10:25:15.252Z,20.60
2017-11-13T10:27:42.744Z,22.13
2017-11-13T10:30:10.202Z,29.60
2017-11-13T10:32:37.684Z,27.07
2017-11-13T10:35:05.144Z,22.80
2017-11-13T10:37:32.630Z,26.33
2017-11-13T10:40:00.116Z,24.57
2017-11-13T10:42:27.715Z,18.03
2017-11-13T10:44:55.191Z,22.40
2017-11-13T10:47:23.426Z,19.10
2017-11-13T10:49:50.895Z,20.63
2017-11-13T10:52:18.469Z,16.57
2017-11-13T10:54:45.945Z,19.70
2017-11-13T10:57:14.168Z,18.13
2017-11-13T10:59:41.673Z,22.63
2017-11-13T11:02:09.144Z,15.87
2017-11-13T11:04:37.375Z,18.30
2017-11-13T11:07:04.847Z,19.03
2017-11-13T11:09:32.329Z,16.80
2017-11-13T11:12:00.576Z,21.27
2017-11-13T11:17:46.456Z,16.10
2017-11-13T11:20:16.703Z,14.43
2017-11-13T11:22:44.612Z,18.73
2017-11-13T11:25:12.852Z,19.57
2017-11-13T11:27:40.311Z,16.43
2017-11-13T11:30:13.498Z,18.57
2017-11-13T11:32:56.777Z,17.90
2017-11-13T11:38:24.395Z,20.07
2017-11-13T11:40:54.476Z,17.87
2017-11-13T11:43:22.713Z,23.50
2017-11-13T11:45:50.759Z,19.27
2017-11-13T11:48:28.912Z,14.93
2017-11-13T11:50:56.375Z,17.20
2017-11-13T11:53:23.841Z,18.47
2017-11-13T11:55:52.083Z,16.03
2017-11-13T11:58:19.549Z,14.50
2017-11-13T12:00:47.032Z,18.90
2017-11-13T12:03:15.348Z,16.73
2017-11-13T12:05:42.846Z,18.80
2017-11-13T12:08:10.322Z,14.80
2017-11-13T12:10:37.787Z,13.60
2017-11-13T12:13:06.050Z,16.33
2017-11-13T12:15:33.515Z,13.70
2017-11-13T12:18:01.767Z,12.27
2017-11-13T12:20:29.338Z,12.13
2017-11-13T12:22:56.820Z,26.37
2017-11-13T12:25:25.057Z,14.80
2017-11-13T12:27:52.520Z,13.73
2017-11-13T12:30:20.085Z,13.80
2017-11-13T12:32:47.610Z,13.83
2017-11-13T12:35:15.023Z,11.33
2017-11-13T12:37:42.495Z,13.23
2017-11-13T12:40:10.742Z,9.33
2017-11-13T12:42:38.207Z,14.30
2017-11-13T12:45:05.756Z,12.20
2017-11-13T12:47:33.276Z,11.30
2017-11-13T12:50:00.743Z,17.77
2017-11-13T12:52:28.215Z,13.57
2017-11-13T12:54:55.680Z,14.73
2017-11-13T12:57:23.140Z,15.73
2017-11-13T12:59:50.616Z,14.60
2017-11-13T13:02:18.086Z,15.80
2017-11-13T13:04:46.332Z,24.60
2017-11-13T13:07:13.823Z,19.37
2017-11-13T13:09:42.356Z,16.40
2017-11-13T13:12:09.803Z,15.43
2017-11-13T13:14:37.499Z,14.00
2017-11-13T13:17:04.981Z,17.07
2017-11-13T13:22:25.233Z,12.33
2017-11-13T13:24:52.697Z,16.50
2017-11-13T13:27:20.169Z,14.40
2017-11-13T13:29:47.645Z,14.43
2017-11-13T13:32:15.124Z,15.90
2017-11-13T13:34:43.350Z,15.40
2017-11-13T13:37:10.824Z,15.70
2017-11-13T13:39:38.295Z,13.23
2017-11-13T13:42:17.742Z,14.33
2017-11-13T13:44:45.200Z,16.77
2017-11-13T13:47:12.683Z,16.20
2017-11-13T13:49:40.913Z,15.47
2017-11-13T13:52:08.399Z,14.17
2017-11-13T13:54:35.863Z,16.10
2017-11-13T13:57:04.124Z,13.53
2017-11-13T13:59:31.586Z,14.20
2017-11-13T14:01:59.150Z,12.83
2017-11-13T14:04:26.614Z,15.10
2017-11-13T14:06:54.880Z,15.73
2017-11-13T14:09:22.435Z,14.00
2017-11-13T14:11:49.912Z,15.50
2017-11-13T14:14:18.173Z,14.50
2017-11-13T14:16:45.642Z,16.20
2017-11-13T14:19:13.128Z,13.27
2017-11-13T14:21:40.587Z,15.67
2017-11-13T14:24:08.058Z,12.83
2017-11-13T14:26:35.523Z,11.03
2017-11-13T14:29:02.999Z,11.23
2017-11-13T14:31:30.459Z,13.73
2017-11-13T14:33:57.935Z,10.73
2017-11-13T14:36:25.405Z,13.37
2017-11-13T14:38:52.867Z,12.40
2017-11-13T14:41:20.325Z,11.63
2017-11-13T14:43:47.795Z,12.70
2017-11-13T14:46:16.020Z,10.23
2017-11-13T14:48:43.504Z,15.60
2017-11-13T14:51:11.050Z,10.83
2017-11-13T14:53:40.032Z,10.37
2017-11-13T14:56:07.485Z,11.20
2017-11-13T14:58:34.972Z,9.13
2017-11-13T15:01:02.452Z,13.60
2017-11-13T15:03:30.680Z,10.87
2017-11-13T15:05:58.151Z,11.90
2017-11-13T15:08:25.643Z,14.40
2017-11-13T15:10:53.184Z,10.47
2017-11-13T15:13:20.653Z,11.03
2017-11-13T15:15:48.879Z,12.20
2017-11-13T15:18:16.747Z,8.60
2017-11-13T15:20:44.342Z,9.23
2017-11-13T15:23:12.579Z,7.80
2017-11-13T15:25:40.101Z,6.53
2017-11-13T15:28:07.598Z,10.57
2017-11-13T15:30:35.094Z,16.40
2017-11-13T15:33:02.662Z,15.50
2017-11-13T15:35:30.124Z,8.33
2017-11-13T15:37:57.677Z,10.20
2017-11-13T15:40:25.150Z,8.90
2017-11-13T15:42:52.629Z,8.87
2017-11-13T15:45:20.118Z,8.50
2017-11-13T15:47:47.570Z,7.80
2017-11-13T15:50:15.035Z,7.53
2017-11-13T15:52:42.495Z,8.80
2017-11-13T15:55:09.958Z,9.73
2017-11-13T15:57:37.484Z,7.83
2017-11-13T16:00:05.010Z,13.60
2017-11-13T16:02:32.557Z,10.40
2017-11-13T16:05:00.028Z,10.57
2017-11-13T16:07:27.512Z,13.67
2017-11-13T16:09:54.994Z,14.87
2017-11-13T16:12:22.460Z,9.27
2017-11-13T16:14:49.940Z,17.60
2017-11-13T16:17:17.402Z,11.50
2017-11-13T16:19:44.974Z,12.93
2017-11-13T16:22:12.439Z,15.63
2017-11-13T16:24:39.916Z,12.67
2017-11-13T16:27:08.143Z,14.80
2017-11-13T16:29:35.772Z,13.77
2017-11-13T16:32:03.294Z,8.70
2017-11-13T16:34:30.769Z,9.73
2017-11-13T16:36:59.024Z,8.47
2017-11-13T16:39:26.522Z,9.77
2017-11-13T16:41:54.002Z,12.70
2017-11-13T16:44:21.510Z,11.50
2017-11-13T16:46:49.755Z,10.83
2017-11-13T16:49:17.240Z,12.50
2017-11-13T16:51:44.708Z,10.63
2017-11-13T16:54:12.947Z,12.20
2017-11-13T16:56:40.414Z,16.63
2017-11-13T16:59:07.870Z,11.57
2017-11-13T17:01:35.349Z,18.93
2017-11-13T17:04:03.225Z,12.60
2017-11-13T17:06:30.696Z,11.30
2017-11-13T17:08:58.919Z,9.23
2017-11-13T17:11:26.411Z,11.00
2017-11-13T17:13:53.909Z,11.33
2017-11-13T17:16:21.371Z,9.30
2017-11-13T17:18:48.850Z,9.77
2017-11-13T17:21:16.330Z,10.80
2017-11-13T17:23:43.787Z,7.57
2017-11-13T17:26:11.258Z,6.87
2017-11-13T17:28:38.719Z,10.73
2017-11-13T17:31:06.961Z,9.30
2017-11-13T17:33:34.414Z,7.83
2017-11-13T17:36:01.907Z,16.93
2017-11-13T17:38:29.373Z,10.00
2017-11-13T17:40:57.605Z,5.73
2017-11-13T17:46:00.119Z,11.80
2017-11-13T17:48:27.674Z,7.90
2017-11-13T17:50:55.343Z,5.90
2017-11-13T17:53:22.815Z,5.13
2017-11-13T17:55:50.295Z,7.30
2017-11-13T17:58:18.523Z,6.33
2017-11-13T18:00:46.008Z,10.20
2017-11-13T18:03:13.479Z,8.80
2017-11-13T18:05:41.716Z,5.03
2017-11-13T18:08:09.172Z,6.27
2017-11-13T18:10:36.662Z,7.50
2017-11-13T18:13:04.891Z,7.93
2017-11-13T18:15:32.356Z,10.47
2017-11-13T18:17:59.821Z,5.97
2017-11-13T18:20:27.284Z,7.47
2017-11-13T18:22:54.746Z,7.17
2017-11-13T18:25:22.216Z,8.90
2017-11-13T18:27:49.692Z,11.20
2017-11-13T18:30:17.919Z,10.13
2017-11-13T18:32:45.401Z,10.70
2017-11-13T18:35:12.880Z,9.50
2017-11-13T18:37:40.338Z,7.13
2017-11-13T18:40:08.570Z,6.80
2017-11-13T18:42:36.029Z,5.03
2017-11-13T18:45:03.478Z,6.80
2017-11-13T18:47:30.939Z,7.63
2017-11-13T18:49:58.399Z,6.30
2017-11-13T18:52:27.587Z,8.37
2017-11-13T18:54:55.044Z,5.30
2017-11-13T18:57:22.503Z,9.83
2017-11-13T18:59:49.969Z,6.47
2017-11-13T19:02:17.427Z,9.30
2017-11-13T19:04:44.888Z,5.80
2017-11-13T19:07:12.361Z,4.97
2017-11-13T19:09:40.535Z,4.80
2017-11-13T19:12:07.982Z,8.03
2017-11-13T19:14:35.462Z,8.00
2017-11-13T19:17:02.921Z,9.80
2017-11-13T19:19:30.577Z,6.50
2017-11-13T19:21:58.050Z,6.50
2017-11-13T19:24:25.515Z,6.67
2017-11-13T19:26:53.744Z,9.57
2017-11-13T19:29:21.251Z,5.80
2017-11-13T19:31:48.693Z,6.20
2017-11-13T19:34:16.162Z,7.00
2017-11-13T19:36:43.630Z,5.00
2017-11-13T19:39:12.588Z,8.40
2017-11-13T19:41:40.064Z,7.97
2017-11-13T19:44:07.545Z,7.80
2017-11-13T19:46:35.988Z,6.97
2017-11-13T19:49:03.448Z,5.50
2017-11-13T19:51:30.909Z,10.90
2017-11-13T19:53:58.378Z,12.07
2017-11-13T19:56:25.836Z,11.53
2017-11-13T19:58:53.302Z,7.73
2017-11-13T20:01:21.528Z,10.27
2017-11-13T20:03:48.992Z,10.20
2017-11-13T20:06:16.455Z,10.73
2017-11-13T20:08:43.920Z,8.67
2017-11-13T20:11:11.389Z,12.00
2017-11-13T20:13:38.900Z,17.00
2017-11-13T20:16:06.360Z,5.43
2017-11-13T20:18:33.836Z,7.40
2017-11-13T20:21:01.289Z,8.93
2017-11-13T20:23:28.750Z,6.73
2017-11-13T20:25:56.208Z,9.20
2017-11-13T20:28:23.659Z,11.40
2017-11-13T20:30:51.123Z,9.10
2017-11-13T20:33:18.583Z,5.77
2017-11-13T20:35:46.042Z,8.57
2017-11-13T20:38:13.499Z,7.07
2017-11-13T20:40:40.968Z,6.87
2017-11-13T20:43:08.449Z,5.60
2017-11-13T20:45:35.990Z,6.70
2017-11-13T20:48:03.481Z,12.37
2017-11-13T20:50:30.953Z,5.30
2017-11-13T20:52:59.219Z,6.03
2017-11-13T20:55:27.449Z,13.80
2017-11-13T20:57:54.903Z,8.30
2017-11-13T21:00:22.374Z,4.40
2017-11-13T21:02:49.839Z,13.87
2017-11-13T21:05:17.311Z,9.13
2017-11-13T21:07:44.772Z,7.33
2017-11-13T21:10:12.354Z,5.10
2017-11-13T21:12:40.603Z,10.23
2017-11-13T21:15:08.873Z,8.77
2017-11-13T21:17:36.421Z,10.80
2017-11-13T21:20:03.911Z,7.03
2017-11-13T21:22:31.363Z,9.40
2017-11-13T21:24:58.832Z,8.67
2017-11-13T21:27:27.082Z,12.53
2017-11-13T21:29:54.596Z,9.00
2017-11-13T21:32:22.093Z,8.77
2017-11-13T21:34:49.556Z,5.67
2017-11-13T21:37:17.028Z,10.90
2017-11-13T21:39:45.272Z,11.90
2017-11-13T21:42:12.744Z,9.83
2017-11-13T21:44:40.204Z,8.43
2017-11-13T21:47:07.688Z,13.13
2017-11-13T21:49:35.181Z,10.87
2017-11-13T21:52:02.658Z,9.80
2017-11-13T21:54:30.123Z,12.17
2017-11-13T21:56:57.590Z,12.90
2017-11-13T21:59:25.048Z,13.17
2017-11-13T22:01:53.437Z,15.27
2017-11-13T22:04:22.405Z,15.07
2017-11-13T22:06:50.423Z,13.77
2017-11-13T22:09:17.897Z,18.23
2017-11-13T22:11:46.271Z,14.10
2017-11-13T22:14:14.528Z,15.03
2017-11-13T22:16:41.999Z,17.57
2017-11-13T22:19:10.228Z,14.07
2017-11-13T22:21:37.709Z,17.63
2017-11-13T22:24:05.173Z,10.73
2017-11-13T22:26:33.415Z,13.63
2017-11-13T22:29:00.875Z,17.50
2017-11-13T22:31:28.355Z,25.23
2017-11-13T22:33:55.807Z,20.57
2017-11-13T22:36:23.283Z,19.43
2017-11-13T22:38:50.742Z,20.87
2017-11-13T22:41:18.208Z,12.20
2017-11-13T22:43:45.677Z,19.80
2017-11-13T22:46:13.911Z,13.80
2017-11-13T22:48:41.367Z,13.30
2017-11-13T22:51:08.853Z,14.60
2017-11-13T22:53:36.312Z,17.47
2017-11-13T22:56:03.769Z,15.60
2017-11-13T22:58:31.258Z,15.50
2017-11-13T23:00:58.738Z,18.87
2017-11-13T23:03:26.211Z,22.53
2017-11-13T23:05:53.710Z,27.57
2017-11-13T23:08:21.243Z,19.20
2017-11-13T23:10:48.808Z,26.00
2017-11-13T23:13:16.301Z,35.97
2017-11-13T23:15:44.525Z,33.03
2017-11-13T23:18:12.273Z,41.10
2017-11-13T23:20:39.934Z,25.03
2017-11-13T23:23:07.431Z,17.50
2017-11-13T23:25:36.399Z,35.70
2017-11-13T23:28:03.875Z,24.90
2017-11-13T23:30:31.339Z,39.30
2017-11-13T23:32:58.821Z,31.87
2017-11-13T23:35:27.079Z,31.77
2017-11-13T23:37:54.793Z,19.83
2017-11-13T23:40:22.259Z,23.93
2017-11-13T23:42:49.732Z,26.60
2017-11-13T23:45:17.191Z,22.27
2017-11-13T23:47:44.654Z,24.47
2017-11-13T23:50:12.127Z,28.10
2017-11-13T23:52:39.599Z,31.23
2017-11-13T23:55:07.066Z,28.23
2017-11-13T23:57:35.298Z,26.73
